sensor_id;sensor_type;location;lat;lon;timestamp;temperature;humidity
16263;DHT22;8239;48.594;8.598;2022-10-26T00:01:22;8.70;99.90
16263;DHT22;8239;48.594;8.598;2022-10-26T00:03:50;8.70;99.90
16263;DHT22;8239;48.594;8.598;2022-10-26T00:06:19;8.70;99.90
16263;DHT22;8239;48.594;8.598;2022-10-26T00:08:49;8.70;99.90
16263;DHT22;8239;48.594;8.598;2022-10-26T00:11:17;8.70;99.90
16263;DHT22;8239;48.594;8.598;2022-10-26T00:13:45;8.80;99.90
16263;DHT22;8239;48.594;8.598;2022-10-26T00:16:14;8.80;99.90
16263;DHT22;8239;48.594;8.598;2022-10-26T00:18:42;8.80;99.90
16263;DHT22;8239;48.594;8.598;2022-10-26T00:21:09;8.80;99.90
16263;DHT22;8239;48.594;8.598;2022-10-26T00:23:38;8.80;99.90
16263;DHT22;8239;48.594;8.598;2022-10-26T00:26:05;8.80;99.90
16263;DHT22;8239;48.594;8.598;2022-10-26T00:28:33;8.80;99.90
16263;DHT22;8239;48.594;8.598;2022-10-26T00:31:01;8.90;99.90
16263;DHT22;8239;48.594;8.598;2022-10-26T00:33:28;8.80;99.90
16263;DHT22;8239;48.594;8.598;2022-10-26T00:35:55;8.90;99.90
16263;DHT22;8239;48.594;8.598;2022-10-26T00:38:22;8.90;99.90
16263;DHT22;8239;48.594;8.598;2022-10-26T00:40:50;8.90;99.90
16263;DHT22;8239;48.594;8.598;2022-10-26T00:43:33;9.00;99.90
16263;DHT22;8239;48.594;8.598;2022-10-26T00:46:02;8.90;99.90
16263;DHT22;8239;48.594;8.598;2022-10-26T00:48:34;8.90;99.90
16263;DHT22;8239;48.594;8.598;2022-10-26T00:51:05;8.90;99.90
16263;DHT22;8239;48.594;8.598;2022-10-26T00:53:34;8.90;99.90
16263;DHT22;8239;48.594;8.598;2022-10-26T00:56:04;8.90;99.90
16263;DHT22;8239;48.594;8.598;2022-10-26T00:58:31;8.90;99.90
16263;DHT22;8239;48.594;8.598;2022-10-26T01:00:58;8.90;99.90
16263;DHT22;8239;48.594;8.598;2022-10-26T01:03:25;9.00;99.90
16263;DHT22;8239;48.594;8.598;2022-10-26T01:05:57;9.00;99.90
16263;DHT22;8239;48.594;8.598;2022-10-26T01:08:24;9.00;99.90
16263;DHT22;8239;48.594;8.598;2022-10-26T01:10:52;9.00;99.90
16263;DHT22;8239;48.594;8.598;2022-10-26T01:13:22;9.00;99.90
16263;DHT22;8239;48.594;8.598;2022-10-26T01:15:56;9.10;99.90
16263;DHT22;8239;48.594;8.598;2022-10-26T01:18:33;9.10;99.90
16263;DHT22;8239;48.594;8.598;2022-10-26T01:24:27;9.20;99.90
16263;DHT22;8239;48.594;8.598;2022-10-26T01:27:11;9.20;99.90
16263;DHT22;8239;48.594;8.598;2022-10-26T01:32:55;9.20;99.90
16263;DHT22;8239;48.594;8.598;2022-10-26T01:35:28;9.10;99.90
16263;DHT22;8239;48.594;8.598;2022-10-26T01:38:03;9.00;99.90
16263;DHT22;8239;48.594;8.598;2022-10-26T01:40:33;8.90;99.90
16263;DHT22;8239;48.594;8.598;2022-10-26T01:43:06;8.90;99.90
16263;DHT22;8239;48.594;8.598;2022-10-26T01:45:36;8.90;99.90
16263;DHT22;8239;48.594;8.598;2022-10-26T01:48:09;8.90;99.90
16263;DHT22;8239;48.594;8.598;2022-10-26T01:50:36;8.90;99.90
16263;DHT22;8239;48.594;8.598;2022-10-26T01:53:04;9.00;99.90
16263;DHT22;8239;48.594;8.598;2022-10-26T01:55:44;9.00;99.90
16263;DHT22;8239;48.594;8.598;2022-10-26T01:58:31;9.00;99.90
16263;DHT22;8239;48.594;8.598;2022-10-26T02:01:10;8.90;99.90
16263;DHT22;8239;48.594;8.598;2022-10-26T02:03:47;9.00;99.90
16263;DHT22;8239;48.594;8.598;2022-10-26T02:06:21;9.00;99.90
16263;DHT22;8239;48.594;8.598;2022-10-26T02:08:57;9.00;99.90
16263;DHT22;8239;48.594;8.598;2022-10-26T02:11:36;9.00;99.90
16263;DHT22;8239;48.594;8.598;2022-10-26T02:14:12;9.10;99.90
16263;DHT22;8239;48.594;8.598;2022-10-26T02:16:48;9.10;99.90
16263;DHT22;8239;48.594;8.598;2022-10-26T02:19:32;9.10;99.90
16263;DHT22;8239;48.594;8.598;2022-10-26T02:22:04;9.00;99.90
16263;DHT22;8239;48.594;8.598;2022-10-26T02:24:32;9.00;99.90
16263;DHT22;8239;48.594;8.598;2022-10-26T02:27:01;9.00;99.90
16263;DHT22;8239;48.594;8.598;2022-10-26T02:29:30;9.00;99.90
16263;DHT22;8239;48.594;8.598;2022-10-26T02:32:00;9.00;99.90
16263;DHT22;8239;48.594;8.598;2022-10-26T02:34:29;9.00;99.90
16263;DHT22;8239;48.594;8.598;2022-10-26T02:36:59;9.00;99.90
16263;DHT22;8239;48.594;8.598;2022-10-26T02:39:29;9.00;99.90
16263;DHT22;8239;48.594;8.598;2022-10-26T02:41:59;9.00;99.90
16263;DHT22;8239;48.594;8.598;2022-10-26T02:44:29;9.00;99.90
16263;DHT22;8239;48.594;8.598;2022-10-26T02:46:57;9.10;99.90
16263;DHT22;8239;48.594;8.598;2022-10-26T02:49:25;9.10;99.90
16263;DHT22;8239;48.594;8.598;2022-10-26T02:51:58;9.10;99.90
16263;DHT22;8239;48.594;8.598;2022-10-26T02:54:31;9.10;99.90
16263;DHT22;8239;48.594;8.598;2022-10-26T02:57:00;9.10;99.90
16263;DHT22;8239;48.594;8.598;2022-10-26T02:59:34;9.10;99.90
16263;DHT22;8239;48.594;8.598;2022-10-26T03:02:03;9.10;99.90
16263;DHT22;8239;48.594;8.598;2022-10-26T03:04:31;9.10;99.90
16263;DHT22;8239;48.594;8.598;2022-10-26T03:07:00;9.10;99.90
16263;DHT22;8239;48.594;8.598;2022-10-26T03:09:28;9.10;99.90
16263;DHT22;8239;48.594;8.598;2022-10-26T03:11:54;9.10;99.90
16263;DHT22;8239;48.594;8.598;2022-10-26T03:14:21;9.10;99.90
16263;DHT22;8239;48.594;8.598;2022-10-26T03:16:48;9.20;99.90
16263;DHT22;8239;48.594;8.598;2022-10-26T03:19:15;9.30;99.90
16263;DHT22;8239;48.594;8.598;2022-10-26T03:21:42;9.40;99.90
16263;DHT22;8239;48.594;8.598;2022-10-26T03:24:11;9.50;99.90
16263;DHT22;8239;48.594;8.598;2022-10-26T03:26:37;9.50;99.90
16263;DHT22;8239;48.594;8.598;2022-10-26T03:29:05;9.60;99.90
16263;DHT22;8239;48.594;8.598;2022-10-26T03:31:33;9.60;99.90
16263;DHT22;8239;48.594;8.598;2022-10-26T03:34:01;9.60;99.90
16263;DHT22;8239;48.594;8.598;2022-10-26T03:36:27;9.50;99.90
16263;DHT22;8239;48.594;8.598;2022-10-26T03:38:54;9.50;99.90
16263;DHT22;8239;48.594;8.598;2022-10-26T03:41:23;9.50;99.90
16263;DHT22;8239;48.594;8.598;2022-10-26T03:43:49;9.40;99.90
16263;DHT22;8239;48.594;8.598;2022-10-26T03:46:16;9.40;99.90
16263;DHT22;8239;48.594;8.598;2022-10-26T03:48:43;9.50;99.90
16263;DHT22;8239;48.594;8.598;2022-10-26T03:51:10;9.50;99.90
16263;DHT22;8239;48.594;8.598;2022-10-26T03:53:37;9.50;99.90
16263;DHT22;8239;48.594;8.598;2022-10-26T03:56:05;9.60;99.90
16263;DHT22;8239;48.594;8.598;2022-10-26T03:58:33;9.60;99.90
16263;DHT22;8239;48.594;8.598;2022-10-26T04:01:00;9.60;99.90
16263;DHT22;8239;48.594;8.598;2022-10-26T04:03:27;9.50;99.90
16263;DHT22;8239;48.594;8.598;2022-10-26T04:05:54;9.40;99.90
16263;DHT22;8239;48.594;8.598;2022-10-26T04:08:22;9.30;99.90
16263;DHT22;8239;48.594;8.598;2022-10-26T04:10:49;9.20;99.90
16263;DHT22;8239;48.594;8.598;2022-10-26T04:13:16;9.20;99.90
16263;DHT22;8239;48.594;8.598;2022-10-26T04:15:44;9.20;99.90
16263;DHT22;8239;48.594;8.598;2022-10-26T04:18:12;9.20;99.90
16263;DHT22;8239;48.594;8.598;2022-10-26T04:20:39;9.20;99.90
16263;DHT22;8239;48.594;8.598;2022-10-26T04:23:10;9.20;99.90
16263;DHT22;8239;48.594;8.598;2022-10-26T04:25:38;9.30;99.90
16263;DHT22;8239;48.594;8.598;2022-10-26T04:28:06;9.20;99.90
16263;DHT22;8239;48.594;8.598;2022-10-26T04:30:34;9.20;99.90
16263;DHT22;8239;48.594;8.598;2022-10-26T04:33:02;9.20;99.90
16263;DHT22;8239;48.594;8.598;2022-10-26T04:35:30;9.10;99.90
16263;DHT22;8239;48.594;8.598;2022-10-26T04:37:57;9.10;99.90
16263;DHT22;8239;48.594;8.598;2022-10-26T04:40:25;9.10;99.90
16263;DHT22;8239;48.594;8.598;2022-10-26T04:42:52;9.10;99.90
16263;DHT22;8239;48.594;8.598;2022-10-26T04:45:19;9.10;99.90
16263;DHT22;8239;48.594;8.598;2022-10-26T04:47:46;9.00;99.90
16263;DHT22;8239;48.594;8.598;2022-10-26T04:50:14;9.10;99.90
16263;DHT22;8239;48.594;8.598;2022-10-26T04:52:41;9.10;99.90
16263;DHT22;8239;48.594;8.598;2022-10-26T04:55:08;9.10;99.90
16263;DHT22;8239;48.594;8.598;2022-10-26T04:57:35;9.10;99.90
16263;DHT22;8239;48.594;8.598;2022-10-26T05:00:04;9.10;99.90
16263;DHT22;8239;48.594;8.598;2022-10-26T05:02:31;9.20;99.90
16263;DHT22;8239;48.594;8.598;2022-10-26T05:04:58;9.20;99.90
16263;DHT22;8239;48.594;8.598;2022-10-26T05:07:28;9.40;99.90
16263;DHT22;8239;48.594;8.598;2022-10-26T05:09:55;9.50;99.90
16263;DHT22;8239;48.594;8.598;2022-10-26T05:12:22;9.50;99.90
16263;DHT22;8239;48.594;8.598;2022-10-26T05:14:49;9.60;99.90
16263;DHT22;8239;48.594;8.598;2022-10-26T05:17:16;9.60;99.90
16263;DHT22;8239;48.594;8.598;2022-10-26T05:19:43;9.70;99.90
16263;DHT22;8239;48.594;8.598;2022-10-26T05:22:17;9.70;99.90
16263;DHT22;8239;48.594;8.598;2022-10-26T05:24:45;9.70;99.90
16263;DHT22;8239;48.594;8.598;2022-10-26T05:27:12;9.80;99.90
16263;DHT22;8239;48.594;8.598;2022-10-26T05:29:39;9.80;99.90
16263;DHT22;8239;48.594;8.598;2022-10-26T05:32:06;9.80;99.90
16263;DHT22;8239;48.594;8.598;2022-10-26T05:34:33;9.90;99.90
16263;DHT22;8239;48.594;8.598;2022-10-26T05:37:00;9.90;99.90
16263;DHT22;8239;48.594;8.598;2022-10-26T05:39:27;9.90;99.90
16263;DHT22;8239;48.594;8.598;2022-10-26T05:41:55;10.00;99.90
16263;DHT22;8239;48.594;8.598;2022-10-26T05:44:22;10.00;99.90
16263;DHT22;8239;48.594;8.598;2022-10-26T05:46:49;10.10;99.90
16263;DHT22;8239;48.594;8.598;2022-10-26T05:49:16;10.20;99.90
16263;DHT22;8239;48.594;8.598;2022-10-26T05:51:43;10.30;99.90
16263;DHT22;8239;48.594;8.598;2022-10-26T05:54:10;10.30;99.90
16263;DHT22;8239;48.594;8.598;2022-10-26T05:56:39;10.30;99.90
16263;DHT22;8239;48.594;8.598;2022-10-26T05:59:11;10.40;99.90
16263;DHT22;8239;48.594;8.598;2022-10-26T06:01:54;10.40;99.90
16263;DHT22;8239;48.594;8.598;2022-10-26T06:04:30;10.30;99.90
16263;DHT22;8239;48.594;8.598;2022-10-26T06:07:01;10.20;99.90
16263;DHT22;8239;48.594;8.598;2022-10-26T06:09:28;10.20;99.90
16263;DHT22;8239;48.594;8.598;2022-10-26T06:11:56;10.20;99.90
16263;DHT22;8239;48.594;8.598;2022-10-26T06:14:25;10.30;99.90
16263;DHT22;8239;48.594;8.598;2022-10-26T06:17:03;10.30;99.90
16263;DHT22;8239;48.594;8.598;2022-10-26T06:19:43;10.40;99.90
16263;DHT22;8239;48.594;8.598;2022-10-26T06:22:26;10.50;99.90
16263;DHT22;8239;48.594;8.598;2022-10-26T06:25:02;10.60;99.90
16263;DHT22;8239;48.594;8.598;2022-10-26T06:27:38;10.70;99.90
16263;DHT22;8239;48.594;8.598;2022-10-26T06:30:11;10.80;99.90
16263;DHT22;8239;48.594;8.598;2022-10-26T06:32:38;10.90;99.90
16263;DHT22;8239;48.594;8.598;2022-10-26T06:35:17;11.00;99.90
16263;DHT22;8239;48.594;8.598;2022-10-26T06:37:46;11.10;99.90
16263;DHT22;8239;48.594;8.598;2022-10-26T06:40:16;11.10;99.90
16263;DHT22;8239;48.594;8.598;2022-10-26T06:42:43;11.10;99.90
16263;DHT22;8239;48.594;8.598;2022-10-26T06:45:14;11.00;99.90
16263;DHT22;8239;48.594;8.598;2022-10-26T06:47:47;11.00;99.90
16263;DHT22;8239;48.594;8.598;2022-10-26T06:50:29;11.00;99.90
16263;DHT22;8239;48.594;8.598;2022-10-26T06:53:03;11.00;99.90
16263;DHT22;8239;48.594;8.598;2022-10-26T06:55:38;11.10;99.90
16263;DHT22;8239;48.594;8.598;2022-10-26T06:58:08;11.10;99.90
16263;DHT22;8239;48.594;8.598;2022-10-26T07:00:39;11.20;99.90
16263;DHT22;8239;48.594;8.598;2022-10-26T07:03:06;11.20;99.90
16263;DHT22;8239;48.594;8.598;2022-10-26T07:05:33;11.30;99.90
16263;DHT22;8239;48.594;8.598;2022-10-26T07:08:00;11.40;99.90
16263;DHT22;8239;48.594;8.598;2022-10-26T07:10:27;11.40;99.90
16263;DHT22;8239;48.594;8.598;2022-10-26T07:12:54;11.40;99.90
16263;DHT22;8239;48.594;8.598;2022-10-26T07:15:21;11.40;99.90
16263;DHT22;8239;48.594;8.598;2022-10-26T07:17:49;11.40;99.90
16263;DHT22;8239;48.594;8.598;2022-10-26T07:20:17;11.40;99.90
16263;DHT22;8239;48.594;8.598;2022-10-26T07:22:49;11.60;99.90
16263;DHT22;8239;48.594;8.598;2022-10-26T07:25:16;11.70;99.90
16263;DHT22;8239;48.594;8.598;2022-10-26T07:27:43;12.40;99.90
16263;DHT22;8239;48.594;8.598;2022-10-26T07:30:11;13.10;99.90
16263;DHT22;8239;48.594;8.598;2022-10-26T07:32:38;13.40;99.90
16263;DHT22;8239;48.594;8.598;2022-10-26T07:35:07;13.60;99.90
16263;DHT22;8239;48.594;8.598;2022-10-26T07:37:34;13.60;99.90
16263;DHT22;8239;48.594;8.598;2022-10-26T07:40:01;13.60;99.90
16263;DHT22;8239;48.594;8.598;2022-10-26T07:42:28;13.50;99.90
16263;DHT22;8239;48.594;8.598;2022-10-26T07:44:54;13.40;99.90
16263;DHT22;8239;48.594;8.598;2022-10-26T07:47:21;13.40;99.90
16263;DHT22;8239;48.594;8.598;2022-10-26T07:49:48;13.30;99.90
16263;DHT22;8239;48.594;8.598;2022-10-26T07:52:17;13.30;99.90
16263;DHT22;8239;48.594;8.598;2022-10-26T07:54:44;13.40;99.90
16263;DHT22;8239;48.594;8.598;2022-10-26T07:57:10;13.40;99.90
16263;DHT22;8239;48.594;8.598;2022-10-26T07:59:37;13.50;99.90
16263;DHT22;8239;48.594;8.598;2022-10-26T08:02:05;13.60;99.90
16263;DHT22;8239;48.594;8.598;2022-10-26T08:04:32;13.80;99.90
16263;DHT22;8239;48.594;8.598;2022-10-26T08:06:59;13.90;99.90
16263;DHT22;8239;48.594;8.598;2022-10-26T08:09:27;14.20;99.90
16263;DHT22;8239;48.594;8.598;2022-10-26T08:11:54;14.40;99.90
16263;DHT22;8239;48.594;8.598;2022-10-26T08:14:21;14.60;99.90
16263;DHT22;8239;48.594;8.598;2022-10-26T08:16:48;14.70;99.90
16263;DHT22;8239;48.594;8.598;2022-10-26T08:19:17;14.80;99.90
16263;DHT22;8239;48.594;8.598;2022-10-26T08:21:44;14.70;99.90
16263;DHT22;8239;48.594;8.598;2022-10-26T08:24:11;14.70;99.90
16263;DHT22;8239;48.594;8.598;2022-10-26T08:26:40;14.70;99.90
16263;DHT22;8239;48.594;8.598;2022-10-26T08:29:07;14.70;99.90
16263;DHT22;8239;48.594;8.598;2022-10-26T08:31:34;14.60;99.90
16263;DHT22;8239;48.594;8.598;2022-10-26T08:34:01;14.60;99.90
16263;DHT22;8239;48.594;8.598;2022-10-26T08:36:29;14.40;99.90
16263;DHT22;8239;48.594;8.598;2022-10-26T08:38:56;14.40;99.90
16263;DHT22;8239;48.594;8.598;2022-10-26T08:41:30;14.40;99.90
16263;DHT22;8239;48.594;8.598;2022-10-26T08:44:05;14.40;99.90
16263;DHT22;8239;48.594;8.598;2022-10-26T08:46:36;14.50;99.90
16263;DHT22;8239;48.594;8.598;2022-10-26T08:49:16;14.70;99.90
16263;DHT22;8239;48.594;8.598;2022-10-26T08:51:46;14.90;99.90
16263;DHT22;8239;48.594;8.598;2022-10-26T08:54:17;16.10;99.90
16263;DHT22;8239;48.594;8.598;2022-10-26T08:56:48;18.30;99.90
16263;DHT22;8239;48.594;8.598;2022-10-26T08:59:23;21.00;99.90
16263;DHT22;8239;48.594;8.598;2022-10-26T09:01:54;23.30;99.90
16263;DHT22;8239;48.594;8.598;2022-10-26T09:04:25;25.00;99.70
16263;DHT22;8239;48.594;8.598;2022-10-26T09:06:57;26.30;94.60
16263;DHT22;8239;48.594;8.598;2022-10-26T09:09:38;26.90;90.10
16263;DHT22;8239;48.594;8.598;2022-10-26T09:12:17;27.70;80.80
16263;DHT22;8239;48.594;8.598;2022-10-26T09:14:58;29.10;75.60
16263;DHT22;8239;48.594;8.598;2022-10-26T09:17:35;30.70;65.70
16263;DHT22;8239;48.594;8.598;2022-10-26T09:23:08;31.80;55.10
16263;DHT22;8239;48.594;8.598;2022-10-26T09:25:42;30.80;53.80
16263;DHT22;8239;48.594;8.598;2022-10-26T09:28:14;29.40;55.10
16263;DHT22;8239;48.594;8.598;2022-10-26T09:30:45;27.80;57.10
16263;DHT22;8239;48.594;8.598;2022-10-26T09:33:15;26.50;60.30
16263;DHT22;8239;48.594;8.598;2022-10-26T09:35:45;26.50;61.90
16263;DHT22;8239;48.594;8.598;2022-10-26T09:38:19;27.40;61.60
16263;DHT22;8239;48.594;8.598;2022-10-26T09:40:54;28.80;59.10
16263;DHT22;8239;48.594;8.598;2022-10-26T09:43:25;29.50;56.00
16263;DHT22;8239;48.594;8.598;2022-10-26T09:45:55;28.70;54.30
16263;DHT22;8239;48.594;8.598;2022-10-26T09:48:28;27.10;56.40
16263;DHT22;8239;48.594;8.598;2022-10-26T09:50:57;25.40;59.30
16263;DHT22;8239;48.594;8.598;2022-10-26T09:53:24;23.90;62.90
16263;DHT22;8239;48.594;8.598;2022-10-26T09:56:00;22.70;67.50
16263;DHT22;8239;48.594;8.598;2022-10-26T09:58:33;21.80;71.10
16263;DHT22;8239;48.594;8.598;2022-10-26T10:01:03;21.10;74.60
16263;DHT22;8239;48.594;8.598;2022-10-26T10:03:31;20.60;77.30
16263;DHT22;8239;48.594;8.598;2022-10-26T10:06:15;20.20;79.10
16263;DHT22;8239;48.594;8.598;2022-10-26T10:08:43;19.80;81.20
16263;DHT22;8239;48.594;8.598;2022-10-26T10:11:13;19.50;83.60
16263;DHT22;8239;48.594;8.598;2022-10-26T10:13:42;19.30;85.30
16263;DHT22;8239;48.594;8.598;2022-10-26T10:16:19;19.20;87.80
16263;DHT22;8239;48.594;8.598;2022-10-26T10:18:53;19.20;90.10
16263;DHT22;8239;48.594;8.598;2022-10-26T10:21:20;19.50;91.60
16263;DHT22;8239;48.594;8.598;2022-10-26T10:23:49;20.30;92.20
16263;DHT22;8239;48.594;8.598;2022-10-26T10:26:19;21.10;91.00
16263;DHT22;8239;48.594;8.598;2022-10-26T10:28:56;21.90;87.40
16263;DHT22;8239;48.594;8.598;2022-10-26T10:31:28;22.00;82.30
16263;DHT22;8239;48.594;8.598;2022-10-26T10:33:56;21.80;83.30
16263;DHT22;8239;48.594;8.598;2022-10-26T10:36:25;21.60;84.20
16263;DHT22;8239;48.594;8.598;2022-10-26T10:38:54;21.60;84.60
16263;DHT22;8239;48.594;8.598;2022-10-26T10:41:25;21.40;83.50
16263;DHT22;8239;48.594;8.598;2022-10-26T10:43:59;21.40;84.80
16263;DHT22;8239;48.594;8.598;2022-10-26T10:46:28;21.90;85.50
16263;DHT22;8239;48.594;8.598;2022-10-26T10:49:02;23.00;85.00
16263;DHT22;8239;48.594;8.598;2022-10-26T10:51:32;24.80;81.20
16263;DHT22;8239;48.594;8.598;2022-10-26T10:54:02;26.60;75.20
16263;DHT22;8239;48.594;8.598;2022-10-26T10:56:40;27.90;65.50
16263;DHT22;8239;48.594;8.598;2022-10-26T10:59:37;28.40;60.70
16263;DHT22;8239;48.594;8.598;2022-10-26T11:02:31;29.20;59.20
16263;DHT22;8239;48.594;8.598;2022-10-26T11:05:18;30.30;56.10
16263;DHT22;8239;48.594;8.598;2022-10-26T11:07:51;30.30;51.30
16263;DHT22;8239;48.594;8.598;2022-10-26T11:10:22;29.50;51.60
16263;DHT22;8239;48.594;8.598;2022-10-26T11:12:55;28.00;52.60
16263;DHT22;8239;48.594;8.598;2022-10-26T11:15:26;26.40;55.30
16263;DHT22;8239;48.594;8.598;2022-10-26T11:18:01;25.00;58.10
16263;DHT22;8239;48.594;8.598;2022-10-26T11:20:34;24.40;62.90
16263;DHT22;8239;48.594;8.598;2022-10-26T11:23:07;24.50;63.00
16263;DHT22;8239;48.594;8.598;2022-10-26T11:25:40;25.00;63.40
16263;DHT22;8239;48.594;8.598;2022-10-26T11:28:14;25.40;62.10
16263;DHT22;8239;48.594;8.598;2022-10-26T11:30:45;26.30;61.70
16263;DHT22;8239;48.594;8.598;2022-10-26T11:33:18;27.40;59.20
16263;DHT22;8239;48.594;8.598;2022-10-26T11:35:51;28.40;57.20
16263;DHT22;8239;48.594;8.598;2022-10-26T11:38:25;29.10;54.30
16263;DHT22;8239;48.594;8.598;2022-10-26T11:41:00;28.50;52.10
16263;DHT22;8239;48.594;8.598;2022-10-26T11:43:32;27.50;52.90
16263;DHT22;8239;48.594;8.598;2022-10-26T11:46:04;27.30;56.20
16263;DHT22;8239;48.594;8.598;2022-10-26T11:48:39;27.70;55.90
16263;DHT22;8239;48.594;8.598;2022-10-26T11:51:15;27.70;53.80
16263;DHT22;8239;48.594;8.598;2022-10-26T11:53:44;27.10;54.10
16263;DHT22;8239;48.594;8.598;2022-10-26T11:56:15;26.40;55.40
16263;DHT22;8239;48.594;8.598;2022-10-26T11:58:45;25.70;56.70
16263;DHT22;8239;48.594;8.598;2022-10-26T12:01:14;25.00;57.90
16263;DHT22;8239;48.594;8.598;2022-10-26T12:03:47;24.50;59.10
16263;DHT22;8239;48.594;8.598;2022-10-26T12:06:18;24.10;60.10
16263;DHT22;8239;48.594;8.598;2022-10-26T12:08:51;24.00;62.50
16263;DHT22;8239;48.594;8.598;2022-10-26T12:11:31;24.10;62.80
16263;DHT22;8239;48.594;8.598;2022-10-26T12:14:03;24.90;63.20
16263;DHT22;8239;48.594;8.598;2022-10-26T12:16:43;26.40;61.40
16263;DHT22;8239;48.594;8.598;2022-10-26T12:19:18;28.40;57.70
16263;DHT22;8239;48.594;8.598;2022-10-26T12:21:48;30.20;54.00
16263;DHT22;8239;48.594;8.598;2022-10-26T12:24:27;31.60;50.80
16263;DHT22;8239;48.594;8.598;2022-10-26T12:26:56;32.90;48.40
16263;DHT22;8239;48.594;8.598;2022-10-26T12:32:50;34.00;44.10
16263;DHT22;8239;48.594;8.598;2022-10-26T12:35:42;34.50;42.60
16263;DHT22;8239;48.594;8.598;2022-10-26T12:41:27;34.00;41.00
16263;DHT22;8239;48.594;8.598;2022-10-26T12:43:56;33.40;41.00
16263;DHT22;8239;48.594;8.598;2022-10-26T12:46:41;32.90;41.50
16263;DHT22;8239;48.594;8.598;2022-10-26T12:58:41;32.70;41.00
16263;DHT22;8239;48.594;8.598;2022-10-26T13:01:45;32.80;42.30
16263;DHT22;8239;48.594;8.598;2022-10-26T13:07:37;34.00;42.30
16263;DHT22;8239;48.594;8.598;2022-10-26T13:10:19;34.60;40.50
16263;DHT22;8239;48.594;8.598;2022-10-26T13:12:50;34.80;39.30
16263;DHT22;8239;48.594;8.598;2022-10-26T13:15:21;34.60;39.10
16263;DHT22;8239;48.594;8.598;2022-10-26T13:18:00;34.60;40.10
16263;DHT22;8239;48.594;8.598;2022-10-26T13:20:29;34.00;38.80
16263;DHT22;8239;48.594;8.598;2022-10-26T13:22:58;33.30;40.10
16263;DHT22;8239;48.594;8.598;2022-10-26T13:25:27;32.80;41.40
16263;DHT22;8239;48.594;8.598;2022-10-26T13:28:01;32.60;42.20
16263;DHT22;8239;48.594;8.598;2022-10-26T13:30:41;32.30;42.10
16263;DHT22;8239;48.594;8.598;2022-10-26T13:33:16;31.80;42.80
16263;DHT22;8239;48.594;8.598;2022-10-26T13:35:45;32.00;42.80
16263;DHT22;8239;48.594;8.598;2022-10-26T13:38:17;31.80;42.00
16263;DHT22;8239;48.594;8.598;2022-10-26T13:40:45;31.70;42.60
16263;DHT22;8239;48.594;8.598;2022-10-26T13:43:18;31.40;42.70
16263;DHT22;8239;48.594;8.598;2022-10-26T13:45:53;31.60;43.90
16263;DHT22;8239;48.594;8.598;2022-10-26T13:48:26;31.30;42.60
16263;DHT22;8239;48.594;8.598;2022-10-26T13:50:56;30.40;44.00
16263;DHT22;8239;48.594;8.598;2022-10-26T13:53:35;29.60;44.70
16263;DHT22;8239;48.594;8.598;2022-10-26T13:56:08;28.20;46.40
16263;DHT22;8239;48.594;8.598;2022-10-26T13:58:44;26.80;48.60
16263;DHT22;8239;48.594;8.598;2022-10-26T14:01:15;25.80;52.10
16263;DHT22;8239;48.594;8.598;2022-10-26T14:03:43;25.60;53.40
16263;DHT22;8239;48.594;8.598;2022-10-26T14:06:16;25.70;53.20
16263;DHT22;8239;48.594;8.598;2022-10-26T14:08:45;25.40;53.20
16263;DHT22;8239;48.594;8.598;2022-10-26T14:11:17;25.00;54.70
16263;DHT22;8239;48.594;8.598;2022-10-26T14:13:45;25.20;55.90
16263;DHT22;8239;48.594;8.598;2022-10-26T14:16:15;25.40;54.30
16263;DHT22;8239;48.594;8.598;2022-10-26T14:18:46;25.00;54.00
16263;DHT22;8239;48.594;8.598;2022-10-26T14:21:16;24.30;55.00
16263;DHT22;8239;48.594;8.598;2022-10-26T14:23:47;23.60;56.50
16263;DHT22;8239;48.594;8.598;2022-10-26T14:26:19;22.90;58.00
16263;DHT22;8239;48.594;8.598;2022-10-26T14:28:48;22.60;59.80
16263;DHT22;8239;48.594;8.598;2022-10-26T14:31:25;22.40;62.10
16263;DHT22;8239;48.594;8.598;2022-10-26T14:33:53;22.90;63.00
16263;DHT22;8239;48.594;8.598;2022-10-26T14:36:24;23.20;61.10
16263;DHT22;8239;48.594;8.598;2022-10-26T14:38:57;23.30;60.30
16263;DHT22;8239;48.594;8.598;2022-10-26T14:41:25;23.30;60.00
16263;DHT22;8239;48.594;8.598;2022-10-26T14:43:54;23.20;60.50
16263;DHT22;8239;48.594;8.598;2022-10-26T14:46:22;22.90;60.40
16263;DHT22;8239;48.594;8.598;2022-10-26T14:48:58;22.50;61.20
16263;DHT22;8239;48.594;8.598;2022-10-26T14:51:27;22.00;63.50
16263;DHT22;8239;48.594;8.598;2022-10-26T14:53:57;21.80;64.30
16263;DHT22;8239;48.594;8.598;2022-10-26T14:56:29;21.40;64.90
16263;DHT22;8239;48.594;8.598;2022-10-26T14:58:57;21.10;66.10
16263;DHT22;8239;48.594;8.598;2022-10-26T15:01:31;20.70;67.90
16263;DHT22;8239;48.594;8.598;2022-10-26T15:04:01;20.60;69.00
16263;DHT22;8239;48.594;8.598;2022-10-26T15:06:47;20.60;68.50
16263;DHT22;8239;48.594;8.598;2022-10-26T15:09:41;20.40;68.90
16263;DHT22;8239;48.594;8.598;2022-10-26T15:12:19;20.30;70.80
16263;DHT22;8239;48.594;8.598;2022-10-26T15:14:47;20.20;70.30
16263;DHT22;8239;48.594;8.598;2022-10-26T15:17:20;20.00;70.60
16263;DHT22;8239;48.594;8.598;2022-10-26T15:19:48;19.70;71.30
16263;DHT22;8239;48.594;8.598;2022-10-26T15:22:21;19.50;72.30
16263;DHT22;8239;48.594;8.598;2022-10-26T15:24:53;19.30;73.70
16263;DHT22;8239;48.594;8.598;2022-10-26T15:27:21;19.10;74.70
16263;DHT22;8239;48.594;8.598;2022-10-26T15:29:50;19.00;76.00
16263;DHT22;8239;48.594;8.598;2022-10-26T15:32:28;18.80;77.00
16263;DHT22;8239;48.594;8.598;2022-10-26T15:35:22;18.60;78.30
16263;DHT22;8239;48.594;8.598;2022-10-26T15:37:51;18.40;80.60
16263;DHT22;8239;48.594;8.598;2022-10-26T15:40:21;18.20;82.50
16263;DHT22;8239;48.594;8.598;2022-10-26T15:42:50;18.20;85.40
16263;DHT22;8239;48.594;8.598;2022-10-26T15:45:20;18.30;86.20
16263;DHT22;8239;48.594;8.598;2022-10-26T15:47:49;18.30;86.70
16263;DHT22;8239;48.594;8.598;2022-10-26T15:50:18;18.10;87.20
16263;DHT22;8239;48.594;8.598;2022-10-26T15:52:46;17.90;88.30
16263;DHT22;8239;48.594;8.598;2022-10-26T15:55:13;17.70;89.40
16263;DHT22;8239;48.594;8.598;2022-10-26T15:57:42;17.40;90.30
16263;DHT22;8239;48.594;8.598;2022-10-26T16:00:14;17.10;92.10
16263;DHT22;8239;48.594;8.598;2022-10-26T16:02:42;16.80;94.50
16263;DHT22;8239;48.594;8.598;2022-10-26T16:05:11;16.60;95.80
16263;DHT22;8239;48.594;8.598;2022-10-26T16:07:41;16.30;96.30
16263;DHT22;8239;48.594;8.598;2022-10-26T16:10:16;16.10;97.10
16263;DHT22;8239;48.594;8.598;2022-10-26T16:12:45;15.70;97.70
16263;DHT22;8239;48.594;8.598;2022-10-26T16:15:16;15.40;98.40
16263;DHT22;8239;48.594;8.598;2022-10-26T16:17:44;15.10;99.30
16263;DHT22;8239;48.594;8.598;2022-10-26T16:20:13;14.80;99.90
16263;DHT22;8239;48.594;8.598;2022-10-26T16:22:41;14.50;99.90
16263;DHT22;8239;48.594;8.598;2022-10-26T16:25:13;14.30;99.90
16263;DHT22;8239;48.594;8.598;2022-10-26T16:27:40;14.00;99.90
16263;DHT22;8239;48.594;8.598;2022-10-26T16:30:10;13.80;99.90
16263;DHT22;8239;48.594;8.598;2022-10-26T16:32:38;13.70;99.90
16263;DHT22;8239;48.594;8.598;2022-10-26T16:35:06;13.50;99.90
16263;DHT22;8239;48.594;8.598;2022-10-26T16:37:33;13.40;99.90
16263;DHT22;8239;48.594;8.598;2022-10-26T16:40:00;13.30;99.90
16263;DHT22;8239;48.594;8.598;2022-10-26T16:42:28;13.20;99.90
16263;DHT22;8239;48.594;8.598;2022-10-26T16:44:55;13.00;99.90